Time;durP1;ratioP1;P1;durP2;ratioP2;P2;SDS_P1;SDS_P2;PMS_P1;PMS_P2;Temp;Humidity;BMP_temperature;BMP_pressure;BME280_temperature;BME280_humidity;BME280_pressure;Samples;Min_cycle;Max_cycle;Signal;HPM_P1;HPM_P2
2022/01/06 00:02:00;;;;;;;2.90;1.83;;;;;;;;;;5101191;28;20055;-49
2022/01/06 00:04:26;;;;;;;2.85;1.58;;;;;;;;;;5103667;28;20071;-49
2022/01/06 00:06:53;;;;;;;3.55;1.80;;;;;;;;;;5085409;28;20031;-49
2022/01/06 00:09:21;;;;;;;4.38;1.23;;;;;;;;;;5085185;28;20043;-49
2022/01/06 00:11:47;;;;;;;2.30;1.38;;;;;;;;;;5054995;28;20027;-48
2022/01/06 00:14:21;;;;;;;4.35;1.40;;;;;;;;;;5091399;28;20590;-49
2022/01/06 00:24:47;;;;;;;3.10;1.20;;;;;;;;;;5109892;28;20438;-49
2022/01/06 00:27:13;;;;;;;5.63;2.05;;;;;;;;;;5092551;28;20411;-49
2022/01/06 00:29:39;;;;;;;5.68;2.20;;;;;;;;;;5100981;28;20032;-48
2022/01/06 00:32:05;;;;;;;9.77;3.75;;;;;;;;;;5109187;28;20046;-52
2022/01/06 00:34:32;;;;;;;8.10;3.20;;;;;;;;;;5091109;28;20458;-49
2022/01/06 00:36:58;;;;;;;7.95;3.50;;;;;;;;;;5109102;28;20620;-50
2022/01/06 00:39:27;;;;;;;5.63;2.72;;;;;;;;;;5104006;28;20019;-49
2022/01/06 00:41:56;;;;;;;6.05;2.85;;;;;;;;;;5095006;28;20111;-51
2022/01/06 00:44:23;;;;;;;5.40;2.45;;;;;;;;;;5088777;28;20057;-49
2022/01/06 00:46:49;;;;;;;5.88;2.03;;;;;;;;;;5088796;28;20566;-48
2022/01/06 00:49:17;;;;;;;3.88;1.90;;;;;;;;;;5094940;28;20023;-51
2022/01/06 00:51:43;;;;;;;5.82;2.22;;;;;;;;;;5107607;28;20497;-49
2022/01/06 00:54:09;;;;;;;5.07;2.22;;;;;;;;;;5107275;28;20019;-49
2022/01/06 00:56:35;;;;;;;4.88;1.88;;;;;;;;;;5096918;28;20040;-50
2022/01/06 00:59:02;;;;;;;3.30;1.55;;;;;;;;;;5087100;28;20490;-49
2022/01/06 01:01:28;;;;;;;4.47;1.70;;;;;;;;;;5088486;28;20029;-48
2022/01/06 01:03:54;;;;;;;3.30;1.40;;;;;;;;;;5088545;28;20418;-50
2022/01/06 01:06:21;;;;;;;5.72;1.70;;;;;;;;;;5088162;28;20024;-48
2022/01/06 01:08:47;;;;;;;4.03;1.40;;;;;;;;;;5088103;28;20048;-51
2022/01/06 01:11:14;;;;;;;4.03;1.70;;;;;;;;;;5100075;28;20052;-53
2022/01/06 01:13:55;;;;;;;4.38;1.55;;;;;;;;;;5088788;28;20098;-50
2022/01/06 01:16:29;;;;;;;3.15;1.25;;;;;;;;;;5087992;28;20487;-51
2022/01/06 01:18:59;;;;;;;3.15;1.23;;;;;;;;;;5102891;28;20027;-50
2022/01/06 01:21:26;;;;;;;3.60;1.30;;;;;;;;;;5108543;28;20110;-49
2022/01/06 01:23:57;;;;;;;4.10;1.48;;;;;;;;;;5108562;28;20031;-49
2022/01/06 01:26:24;;;;;;;3.05;1.13;;;;;;;;;;5098163;28;20020;-48
2022/01/06 01:28:51;;;;;;;4.35;1.20;;;;;;;;;;5089871;28;20032;-49
2022/01/06 01:33:44;;;;;;;3.47;1.40;;;;;;;;;;5108871;28;20092;-50
2022/01/06 01:36:10;;;;;;;1.95;1.10;;;;;;;;;;5108635;28;20059;-49
2022/01/06 01:38:37;;;;;;;3.30;1.10;;;;;;;;;;5108082;28;20144;-48
2022/01/06 01:41:04;;;;;;;4.30;1.63;;;;;;;;;;5094942;28;20067;-49
2022/01/06 01:43:30;;;;;;;4.15;1.42;;;;;;;;;;5105876;28;20020;-50
2022/01/06 01:45:58;;;;;;;1.55;1.00;;;;;;;;;;5107637;28;20032;-52
2022/01/06 01:48:32;;;;;;;3.80;1.58;;;;;;;;;;5108107;28;20046;-49
2022/01/06 01:50:58;;;;;;;3.08;1.35;;;;;;;;;;5105015;28;20043;-49
2022/01/06 01:53:24;;;;;;;5.10;1.60;;;;;;;;;;5107852;28;20045;-49
2022/01/06 01:55:51;;;;;;;3.53;1.40;;;;;;;;;;5102195;28;20027;-48
2022/01/06 01:58:17;;;;;;;3.83;1.17;;;;;;;;;;5087263;28;20031;-49
2022/01/06 02:00:43;;;;;;;2.90;1.25;;;;;;;;;;5102579;28;20042;-52
2022/01/06 02:03:09;;;;;;;2.15;1.40;;;;;;;;;;5107255;28;20407;-49
2022/01/06 02:05:35;;;;;;;5.55;1.50;;;;;;;;;;5107753;28;20403;-49
2022/01/06 02:08:02;;;;;;;2.90;1.23;;;;;;;;;;5104369;28;20031;-49
2022/01/06 02:10:29;;;;;;;3.05;1.25;;;;;;;;;;5102858;28;20036;-50
2022/01/06 02:12:57;;;;;;;4.13;1.55;;;;;;;;;;5087203;28;20027;-49
2022/01/06 02:15:24;;;;;;;3.15;1.42;;;;;;;;;;5087228;28;20035;-50
2022/01/06 02:17:50;;;;;;;3.42;1.25;;;;;;;;;;5086873;28;20024;-49
2022/01/06 02:20:17;;;;;;;3.60;1.40;;;;;;;;;;5097066;28;20454;-50
2022/01/06 02:22:43;;;;;;;3.53;1.13;;;;;;;;;;5107865;28;20405;-49
2022/01/06 02:25:14;;;;;;;4.40;1.75;;;;;;;;;;5090149;28;20028;-49
2022/01/06 02:27:40;;;;;;;3.35;1.13;;;;;;;;;;5087574;28;20099;-49
2022/01/06 02:30:07;;;;;;;4.85;1.52;;;;;;;;;;5085510;28;20032;-49
2022/01/06 02:32:33;;;;;;;2.45;1.20;;;;;;;;;;5086504;28;20102;-49
2022/01/06 02:35:03;;;;;;;3.03;1.10;;;;;;;;;;5086708;28;20032;-49
2022/01/06 02:37:29;;;;;;;4.32;1.60;;;;;;;;;;5086907;28;20028;-49
2022/01/06 02:39:55;;;;;;;4.20;1.60;;;;;;;;;;5097814;28;20065;-49
2022/01/06 02:42:21;;;;;;;4.82;1.35;;;;;;;;;;5103447;28;20105;-48
2022/01/06 02:44:47;;;;;;;3.40;1.40;;;;;;;;;;5106789;28;20838;-48
2022/01/06 02:47:14;;;;;;;4.10;1.67;;;;;;;;;;5105039;28;20030;-48
2022/01/06 02:49:40;;;;;;;3.58;1.10;;;;;;;;;;5104857;28;20732;-49
2022/01/06 02:52:06;;;;;;;4.35;1.52;;;;;;;;;;5106575;28;20035;-51
2022/01/06 02:54:32;;;;;;;4.32;1.60;;;;;;;;;;5106838;28;20126;-48
2022/01/06 02:56:58;;;;;;;5.03;1.67;;;;;;;;;;5091493;28;20043;-49
2022/01/06 02:59:25;;;;;;;4.88;1.52;;;;;;;;;;5102036;28;20027;-49
2022/01/06 03:01:51;;;;;;;5.75;1.45;;;;;;;;;;5106677;28;20020;-49
2022/01/06 03:04:17;;;;;;;4.68;1.40;;;;;;;;;;5106300;28;20027;-49
2022/01/06 03:06:43;;;;;;;2.30;1.10;;;;;;;;;;5104897;28;20570;-49
2022/01/06 03:09:09;;;;;;;2.40;1.20;;;;;;;;;;5103889;28;20123;-49
2022/01/06 03:11:40;;;;;;;2.70;1.35;;;;;;;;;;5094725;28;20074;-49
2022/01/06 03:14:07;;;;;;;2.42;0.98;;;;;;;;;;5085483;28;20040;-49
2022/01/06 03:16:33;;;;;;;3.83;1.13;;;;;;;;;;5086338;28;20441;-48
2022/01/06 03:18:59;;;;;;;2.05;1.00;;;;;;;;;;5084826;28;20406;-48
2022/01/06 03:21:25;;;;;;;2.38;1.23;;;;;;;;;;5088257;28;20479;-49
2022/01/06 03:23:51;;;;;;;4.43;1.25;;;;;;;;;;5106433;28;20019;-49
2022/01/06 03:26:17;;;;;;;1.48;0.90;;;;;;;;;;5097026;28;20581;-49
2022/01/06 03:28:43;;;;;;;3.40;1.40;;;;;;;;;;5086865;28;20494;-49
2022/01/06 03:31:09;;;;;;;2.33;1.15;;;;;;;;;;5099623;28;20077;-48
2022/01/06 03:33:35;;;;;;;3.33;1.25;;;;;;;;;;5106416;28;20027;-49
2022/01/06 03:36:01;;;;;;;2.15;1.13;;;;;;;;;;5106236;28;20384;-49
2022/01/06 03:38:27;;;;;;;3.55;1.15;;;;;;;;;;5106332;28;20038;-49
2022/01/06 03:40:53;;;;;;;3.08;1.50;;;;;;;;;;5098322;28;20039;-51
2022/01/06 03:43:20;;;;;;;3.13;1.13;;;;;;;;;;5085561;28;20565;-48
2022/01/06 03:45:46;;;;;;;1.48;0.75;;;;;;;;;;5085922;28;20486;-49
2022/01/06 03:48:12;;;;;;;1.95;1.00;;;;;;;;;;5086407;28;20383;-49
2022/01/06 03:50:39;;;;;;;3.33;1.00;;;;;;;;;;5088131;28;20487;-48
2022/01/06 03:53:05;;;;;;;4.60;1.40;;;;;;;;;;5104009;28;20406;-50
2022/01/06 03:55:31;;;;;;;1.90;1.00;;;;;;;;;;5089021;28;20085;-49
2022/01/06 03:57:57;;;;;;;3.50;1.20;;;;;;;;;;5089473;28;20095;-49
2022/01/06 04:00:23;;;;;;;1.73;0.90;;;;;;;;;;5089653;28;20590;-48
2022/01/06 04:02:49;;;;;;;2.33;0.93;;;;;;;;;;5089733;28;20019;-49
2022/01/06 04:05:15;;;;;;;2.55;1.10;;;;;;;;;;5102419;28;20110;-48
2022/01/06 04:07:42;;;;;;;2.30;1.00;;;;;;;;;;5110430;28;20039;-49
2022/01/06 04:10:09;;;;;;;3.13;1.00;;;;;;;;;;5109551;28;20041;-50
2022/01/06 04:12:36;;;;;;;2.85;1.25;;;;;;;;;;5098200;28;20032;-51
2022/01/06 04:15:03;;;;;;;2.80;1.38;;;;;;;;;;5100021;28;20024;-51
2022/01/06 04:17:29;;;;;;;3.47;1.30;;;;;;;;;;5109931;28;20050;-49
2022/01/06 04:19:55;;;;;;;3.20;1.38;;;;;;;;;;5109766;28;20399;-48
2022/01/06 04:22:21;;;;;;;3.10;1.13;;;;;;;;;;5104290;28;20494;-49
2022/01/06 04:24:48;;;;;;;3.05;1.30;;;;;;;;;;5098386;28;20073;-50
2022/01/06 04:27:14;;;;;;;2.17;1.02;;;;;;;;;;5092581;28;20077;-53
2022/01/06 04:29:40;;;;;;;2.38;1.17;;;;;;;;;;5088545;28;20074;-49
2022/01/06 04:32:06;;;;;;;1.52;0.90;;;;;;;;;;5088930;28;20031;-49
2022/01/06 04:34:33;;;;;;;2.92;0.80;;;;;;;;;;5089062;28;20028;-49
2022/01/06 04:37:00;;;;;;;2.75;1.27;;;;;;;;;;5088883;28;20499;-49
2022/01/06 04:39:26;;;;;;;3.47;0.80;;;;;;;;;;5090454;28;20024;-50
2022/01/06 04:41:52;;;;;;;2.90;0.90;;;;;;;;;;5095128;28;20387;-49
2022/01/06 04:44:18;;;;;;;2.50;1.10;;;;;;;;;;5088085;28;20499;-51
2022/01/06 04:46:44;;;;;;;1.70;0.98;;;;;;;;;;5088910;28;20097;-51
2022/01/06 04:49:11;;;;;;;1.75;1.00;;;;;;;;;;5102315;28;20028;-49
2022/01/06 04:51:37;;;;;;;2.35;1.10;;;;;;;;;;5109189;28;20111;-49
2022/01/06 04:54:03;;;;;;;3.33;1.20;;;;;;;;;;5106693;28;20421;-49
2022/01/06 04:56:35;;;;;;;3.75;1.20;;;;;;;;;;5093258;28;20031;-50
2022/01/06 04:59:02;;;;;;;2.60;1.08;;;;;;;;;;5088601;28;20032;-51
2022/01/06 05:01:28;;;;;;;3.72;1.48;;;;;;;;;;5096723;28;20062;-49
2022/01/06 05:03:54;;;;;;;2.90;1.08;;;;;;;;;;5087929;28;20095;-54
2022/01/06 05:06:20;;;;;;;4.47;0.90;;;;;;;;;;5093267;28;20023;-52
2022/01/06 05:08:46;;;;;;;2.70;1.65;;;;;;;;;;5087544;28;20720;-49
2022/01/06 05:11:12;;;;;;;3.58;1.13;;;;;;;;;;5093831;28;20106;-52
2022/01/06 05:13:38;;;;;;;2.10;1.17;;;;;;;;;;5088270;28;20109;-49
2022/01/06 05:16:04;;;;;;;2.45;1.20;;;;;;;;;;5087823;28;20024;-52
2022/01/06 05:18:30;;;;;;;4.40;1.40;;;;;;;;;;5087888;28;20043;-50
2022/01/06 05:20:56;;;;;;;4.00;1.30;;;;;;;;;;5103895;28;20430;-50
2022/01/06 05:23:23;;;;;;;3.67;1.17;;;;;;;;;;5108490;28;20376;-49
2022/01/06 05:25:49;;;;;;;3.00;1.30;;;;;;;;;;5085886;28;20024;-49
2022/01/06 05:28:15;;;;;;;1.85;1.13;;;;;;;;;;5086144;28;20073;-50
2022/01/06 05:30:41;;;;;;;2.63;1.25;;;;;;;;;;5094171;28;20055;-49
2022/01/06 05:33:07;;;;;;;3.63;1.23;;;;;;;;;;5096097;28;20125;-49
2022/01/06 05:35:33;;;;;;;3.50;1.50;;;;;;;;;;5074034;28;20020;-52
2022/01/06 05:37:59;;;;;;;3.42;1.17;;;;;;;;;;5086628;28;20085;-49
2022/01/06 05:40:25;;;;;;;4.53;1.52;;;;;;;;;;5067396;28;20382;-49
2022/01/06 05:42:51;;;;;;;3.25;1.20;;;;;;;;;;5085322;28;20474;-51
2022/01/06 05:45:18;;;;;;;4.25;1.50;;;;;;;;;;5093591;28;20020;-49
2022/01/06 05:47:45;;;;;;;5.22;1.50;;;;;;;;;;5090969;28;20157;-49
2022/01/06 05:50:11;;;;;;;4.28;1.88;;;;;;;;;;5104928;28;20023;-48
2022/01/06 05:52:37;;;;;;;5.93;2.22;;;;;;;;;;5098517;28;20047;-52
2022/01/06 05:55:04;;;;;;;4.47;1.83;;;;;;;;;;5086820;28;20039;-49
2022/01/06 05:57:31;;;;;;;6.18;2.10;;;;;;;;;;5086851;28;20412;-50
2022/01/06 05:59:57;;;;;;;5.38;1.70;;;;;;;;;;5102596;28;20031;-50
2022/01/06 06:02:24;;;;;;;5.97;2.40;;;;;;;;;;5091259;28;20028;-49
2022/01/06 06:04:50;;;;;;;7.93;2.20;;;;;;;;;;5086913;28;20035;-50
2022/01/06 06:07:19;;;;;;;8.07;1.80;;;;;;;;;;5086577;28;21059;-50
2022/01/06 06:09:45;;;;;;;4.65;1.70;;;;;;;;;;5086932;28;20035;-50
2022/01/06 06:12:11;;;;;;;4.10;1.88;;;;;;;;;;5085838;28;20453;-51
2022/01/06 06:14:37;;;;;;;4.38;1.60;;;;;;;;;;5080079;28;20032;-49
2022/01/06 06:17:03;;;;;;;3.53;1.45;;;;;;;;;;5082721;28;20089;-49
2022/01/06 06:19:30;;;;;;;3.25;1.48;;;;;;;;;;5086525;28;20028;-50
2022/01/06 06:21:56;;;;;;;4.60;1.52;;;;;;;;;;5089740;28;20023;-52
2022/01/06 06:24:23;;;;;;;3.65;2.13;;;;;;;;;;5106960;28;20092;-52
2022/01/06 06:26:50;;;;;;;2.60;1.15;;;;;;;;;;5093174;28;20020;-50
2022/01/06 06:29:16;;;;;;;4.10;1.90;;;;;;;;;;5096292;28;20027;-51
2022/01/06 06:31:42;;;;;;;2.55;1.10;;;;;;;;;;5089711;28;20039;-50
2022/01/06 06:34:10;;;;;;;3.00;1.17;;;;;;;;;;5085420;28;20036;-50
2022/01/06 06:36:36;;;;;;;2.53;1.02;;;;;;;;;;5084608;28;20119;-50
2022/01/06 06:39:03;;;;;;;4.20;1.48;;;;;;;;;;5085397;28;20060;-49
2022/01/06 06:41:29;;;;;;;7.28;2.28;;;;;;;;;;5088310;28;20039;-48
2022/01/06 06:43:56;;;;;;;5.78;2.22;;;;;;;;;;5084974;28;20502;-53
2022/01/06 06:46:23;;;;;;;4.97;2.10;;;;;;;;;;5086347;28;20032;-50
2022/01/06 06:48:49;;;;;;;5.60;2.20;;;;;;;;;;5086700;28;20486;-52
2022/01/06 06:51:15;;;;;;;3.80;2.00;;;;;;;;;;5086300;28;20544;-49
2022/01/06 06:53:41;;;;;;;6.38;2.35;;;;;;;;;;5093318;28;20043;-49
2022/01/06 06:56:07;;;;;;;3.03;1.65;;;;;;;;;;5085383;28;20114;-51
2022/01/06 06:58:34;;;;;;;2.78;1.42;;;;;;;;;;5084030;28;20103;-48
2022/01/06 07:01:00;;;;;;;4.72;1.90;;;;;;;;;;5085628;28;20182;-51
2022/01/06 07:03:26;;;;;;;6.70;1.85;;;;;;;;;;5086133;28;20099;-49
2022/01/06 07:05:53;;;;;;;7.55;2.47;;;;;;;;;;5086052;28;20031;-49
2022/01/06 07:08:19;;;;;;;6.75;2.50;;;;;;;;;;5085261;28;20099;-49
2022/01/06 07:10:45;;;;;;;5.78;2.50;;;;;;;;;;5093649;28;20491;-49
2022/01/06 07:13:16;;;;;;;8.50;2.80;;;;;;;;;;5085260;28;20107;-49
2022/01/06 07:15:42;;;;;;;7.00;2.60;;;;;;;;;;5086752;28;20027;-49
2022/01/06 07:18:08;;;;;;;6.70;2.42;;;;;;;;;;5085665;28;20407;-49
2022/01/06 07:20:34;;;;;;;6.55;2.65;;;;;;;;;;5091627;28;20449;-48
2022/01/06 07:23:00;;;;;;;5.57;2.60;;;;;;;;;;5083722;28;20119;-49
2022/01/06 07:25:26;;;;;;;5.30;2.20;;;;;;;;;;5083484;28;20455;-50
2022/01/06 07:27:52;;;;;;;5.68;2.47;;;;;;;;;;5087989;28;20088;-50
2022/01/06 07:30:20;;;;;;;3.90;2.35;;;;;;;;;;5088197;28;20528;-50
2022/01/06 07:32:47;;;;;;;5.88;2.10;;;;;;;;;;5098355;28;20032;-49
2022/01/06 07:35:13;;;;;;;5.63;2.20;;;;;;;;;;5094524;28;20036;-49
2022/01/06 07:37:39;;;;;;;5.25;2.13;;;;;;;;;;5081465;28;20025;-48
2022/01/06 07:40:07;;;;;;;4.15;1.83;;;;;;;;;;5089218;28;20105;-48
2022/01/06 07:42:33;;;;;;;4.60;1.80;;;;;;;;;;5088859;28;20095;-49
2022/01/06 07:45:00;;;;;;;4.15;1.85;;;;;;;;;;5087583;28;20032;-48
2022/01/06 07:47:32;;;;;;;4.28;1.70;;;;;;;;;;5089529;28;20034;-51
2022/01/06 07:49:59;;;;;;;5.47;1.98;;;;;;;;;;5089521;28;20028;-49
2022/01/06 07:52:26;;;;;;;3.83;1.60;;;;;;;;;;5089315;28;20098;-51
2022/01/06 07:54:53;;;;;;;6.50;1.92;;;;;;;;;;5101811;28;20502;-49
2022/01/06 07:57:20;;;;;;;4.90;1.77;;;;;;;;;;5091113;28;20024;-52
2022/01/06 07:59:47;;;;;;;5.20;1.77;;;;;;;;;;5088902;28;20042;-49
2022/01/06 08:02:14;;;;;;;4.95;1.95;;;;;;;;;;5101502;28;20024;-48
2022/01/06 08:04:40;;;;;;;4.18;1.83;;;;;;;;;;5103651;28;20092;-51
2022/01/06 08:07:06;;;;;;;7.78;2.10;;;;;;;;;;5110642;28;20069;-49
2022/01/06 08:09:32;;;;;;;4.85;1.92;;;;;;;;;;5100094;28;20388;-51
2022/01/06 08:11:59;;;;;;;4.65;1.60;;;;;;;;;;5089661;28;20028;-49
2022/01/06 08:14:25;;;;;;;4.88;2.10;;;;;;;;;;5084007;28;20497;-52
2022/01/06 08:16:51;;;;;;;4.90;2.10;;;;;;;;;;5093528;28;20032;-48
2022/01/06 08:19:18;;;;;;;5.63;2.00;;;;;;;;;;5096468;28;20525;-52
2022/01/06 08:21:44;;;;;;;4.47;1.98;;;;;;;;;;5089022;28;20110;-51
2022/01/06 08:24:10;;;;;;;4.13;1.88;;;;;;;;;;5089772;28;20526;-48
2022/01/06 08:26:36;;;;;;;5.10;2.00;;;;;;;;;;5071380;28;20757;-48
2022/01/06 08:29:02;;;;;;;4.07;1.50;;;;;;;;;;5102248;28;20444;-49
2022/01/06 08:31:29;;;;;;;6.55;1.65;;;;;;;;;;5104061;28;20506;-50
2022/01/06 08:33:55;;;;;;;3.75;1.80;;;;;;;;;;5090484;28;20030;-49
2022/01/06 08:36:21;;;;;;;5.72;1.75;;;;;;;;;;5090088;28;20036;-52
2022/01/06 08:38:47;;;;;;;5.88;2.13;;;;;;;;;;5084818;28;20483;-49
2022/01/06 08:41:13;;;;;;;4.85;1.70;;;;;;;;;;5088903;28;20032;-49
2022/01/06 08:43:39;;;;;;;4.03;1.83;;;;;;;;;;5076989;28;20047;-51
2022/01/06 08:46:05;;;;;;;4.75;1.77;;;;;;;;;;5088759;28;20020;-52
2022/01/06 08:48:32;;;;;;;7.00;1.98;;;;;;;;;;5088733;28;20024;-52
2022/01/06 08:50:58;;;;;;;5.72;1.80;;;;;;;;;;5089527;28;20036;-52
2022/01/06 08:53:24;;;;;;;3.63;1.48;;;;;;;;;;5089353;28;20079;-48
2022/01/06 08:55:51;;;;;;;3.42;1.92;;;;;;;;;;5087426;28;20020;-51
2022/01/06 08:58:17;;;;;;;4.63;1.63;;;;;;;;;;5089250;28;20039;-49
2022/01/06 09:00:44;;;;;;;2.88;1.50;;;;;;;;;;5088596;28;20426;-50
2022/01/06 09:03:10;;;;;;;3.60;1.58;;;;;;;;;;5095427;28;20106;-48
2022/01/06 09:05:37;;;;;;;3.38;1.52;;;;;;;;;;5089291;28;20032;-51
2022/01/06 09:08:04;;;;;;;3.22;1.40;;;;;;;;;;5088904;28;20085;-49
2022/01/06 09:10:32;;;;;;;3.03;1.50;;;;;;;;;;5087839;28;20542;-51
2022/01/06 09:12:58;;;;;;;5.22;1.60;;;;;;;;;;5088242;28;20036;-51
2022/01/06 09:15:24;;;;;;;4.90;1.48;;;;;;;;;;5095947;28;20024;-50
2022/01/06 09:17:50;;;;;;;5.53;1.58;;;;;;;;;;5087069;28;20038;-48
2022/01/06 09:20:16;;;;;;;4.28;1.30;;;;;;;;;;5099893;28;20039;-51
2022/01/06 09:22:43;;;;;;;2.65;1.30;;;;;;;;;;5088923;28;20046;-49
2022/01/06 09:25:10;;;;;;;3.78;1.42;;;;;;;;;;5088301;28;20031;-49
2022/01/06 09:27:36;;;;;;;4.03;1.23;;;;;;;;;;5087971;28;20047;-51
2022/01/06 09:30:03;;;;;;;2.78;1.30;;;;;;;;;;5101446;28;20526;-51
2022/01/06 09:32:30;;;;;;;3.80;1.20;;;;;;;;;;5093992;28;20052;-51
2022/01/06 09:34:56;;;;;;;2.05;1.10;;;;;;;;;;5109080;28;20031;-53
2022/01/06 09:37:22;;;;;;;2.22;1.38;;;;;;;;;;5092548;28;20115;-50
2022/01/06 09:39:48;;;;;;;5.35;1.75;;;;;;;;;;5080648;28;20032;-50
2022/01/06 09:42:15;;;;;;;4.18;1.67;;;;;;;;;;5069309;28;20407;-49
2022/01/06 09:44:41;;;;;;;7.82;1.95;;;;;;;;;;5088129;28;20028;-51
2022/01/06 09:47:07;;;;;;;4.43;1.60;;;;;;;;;;5088343;28;20074;-51
2022/01/06 09:49:38;;;;;;;5.13;2.15;;;;;;;;;;5086742;28;20024;-50
2022/01/06 09:52:05;;;;;;;4.88;1.73;;;;;;;;;;5086203;28;20059;-49
2022/01/06 09:54:32;;;;;;;7.68;2.72;;;;;;;;;;5082768;28;20024;-49
2022/01/06 09:56:58;;;;;;;7.95;2.50;;;;;;;;;;5088188;28;20040;-52
2022/01/06 09:59:24;;;;;;;7.80;2.63;;;;;;;;;;5085587;28;20020;-50
2022/01/06 10:01:50;;;;;;;6.32;2.67;;;;;;;;;;5083980;28;20024;-51
2022/01/06 10:04:17;;;;;;;4.97;2.30;;;;;;;;;;5085310;28;20020;-48
2022/01/06 10:06:43;;;;;;;6.82;2.65;;;;;;;;;;5087431;28;20365;-50
2022/01/06 10:09:09;;;;;;;4.68;2.17;;;;;;;;;;5085651;28;20032;-49
2022/01/06 10:11:36;;;;;;;6.25;2.47;;;;;;;;;;5087100;28;20086;-49
2022/01/06 10:14:09;;;;;;;6.18;2.90;;;;;;;;;;5087321;28;20565;-52
2022/01/06 10:16:38;;;;;;;8.45;2.58;;;;;;;;;;5087862;28;20024;-49
2022/01/06 10:19:10;;;;;;;6.05;1.88;;;;;;;;;;5087150;28;20085;-48
2022/01/06 10:21:38;;;;;;;6.35;2.33;;;;;;;;;;5087626;28;20637;-50
2022/01/06 10:24:08;;;;;;;6.72;3.15;;;;;;;;;;5087366;28;20073;-51
2022/01/06 10:26:35;;;;;;;7.05;2.45;;;;;;;;;;5087229;28;20471;-49
2022/01/06 10:29:02;;;;;;;9.27;3.00;;;;;;;;;;5087304;28;20031;-50
2022/01/06 10:31:29;;;;;;;7.18;2.50;;;;;;;;;;5088234;28;20067;-49
2022/01/06 10:33:56;;;;;;;6.50;2.50;;;;;;;;;;5088493;28;20108;-49
2022/01/06 10:36:29;;;;;;;7.00;2.70;;;;;;;;;;5086385;28;20036;-49
2022/01/06 10:38:56;;;;;;;6.57;2.67;;;;;;;;;;5083736;28;20024;-51
2022/01/06 10:41:22;;;;;;;6.20;2.38;;;;;;;;;;5084271;28;20554;-50
2022/01/06 10:43:53;;;;;;;4.47;1.85;;;;;;;;;;5087378;28;20511;-51
2022/01/06 10:46:29;;;;;;;3.22;1.67;;;;;;;;;;5082307;28;20031;-48
2022/01/06 10:49:03;;;;;;;5.45;2.00;;;;;;;;;;5084407;28;20043;-49
2022/01/06 10:51:46;;;;;;;3.92;1.75;;;;;;;;;;5086487;28;20035;-50
2022/01/06 10:54:14;;;;;;;6.47;1.98;;;;;;;;;;5090594;28;20032;-49
2022/01/06 10:56:41;;;;;;;2.55;1.45;;;;;;;;;;5085196;28;20024;-52
2022/01/06 10:59:08;;;;;;;6.15;1.88;;;;;;;;;;5090646;28;20046;-51
2022/01/06 11:01:35;;;;;;;3.03;1.50;;;;;;;;;;5086045;28;20024;-50
2022/01/06 11:04:01;;;;;;;3.50;1.20;;;;;;;;;;5087221;28;20028;-47
2022/01/06 11:06:28;;;;;;;3.00;1.33;;;;;;;;;;5095820;28;20073;-51
2022/01/06 11:08:55;;;;;;;3.70;1.42;;;;;;;;;;5086392;28;20043;-50
2022/01/06 11:11:31;;;;;;;5.18;1.70;;;;;;;;;;5095332;28;20024;-49
2022/01/06 11:13:58;;;;;;;4.50;1.67;;;;;;;;;;5084354;28;20071;-52
2022/01/06 11:16:25;;;;;;;3.65;1.77;;;;;;;;;;5086616;28;20028;-49
2022/01/06 11:18:52;;;;;;;7.82;2.33;;;;;;;;;;5084772;28;20115;-49
2022/01/06 11:21:22;;;;;;;5.78;2.17;;;;;;;;;;5085960;28;20024;-50
2022/01/06 11:23:48;;;;;;;4.30;2.00;;;;;;;;;;5086130;28;20093;-48
2022/01/06 11:26:18;;;;;;;3.47;2.00;;;;;;;;;;5083926;28;20421;-52
2022/01/06 11:28:54;;;;;;;3.80;2.10;;;;;;;;;;5084871;28;20112;-51
2022/01/06 11:31:22;;;;;;;4.03;1.90;;;;;;;;;;5084337;28;20059;-49
2022/01/06 11:33:49;;;;;;;2.83;1.23;;;;;;;;;;5084743;28;20024;-52
2022/01/06 11:36:30;;;;;;;5.10;1.65;;;;;;;;;;5083285;28;20059;-51
2022/01/06 11:38:56;;;;;;;5.43;2.13;;;;;;;;;;5084721;28;20026;-52
2022/01/06 11:41:32;;;;;;;4.43;1.85;;;;;;;;;;5084172;28;20111;-52
2022/01/06 11:43:58;;;;;;;4.57;1.77;;;;;;;;;;5085023;28;20032;-49
2022/01/06 11:46:28;;;;;;;2.90;1.33;;;;;;;;;;5085812;28;20103;-53
2022/01/06 11:48:55;;;;;;;3.17;1.25;;;;;;;;;;5085143;28;20121;-52
2022/01/06 11:51:32;;;;;;;4.32;1.83;;;;;;;;;;5082297;28;20028;-52
2022/01/06 11:54:12;;;;;;;2.72;1.50;;;;;;;;;;5085949;28;20059;-49
2022/01/06 11:56:49;;;;;;;2.88;1.73;;;;;;;;;;5084207;28;20039;-50
2022/01/06 11:59:16;;;;;;;4.53;1.88;;;;;;;;;;5085456;28;20478;-51
2022/01/06 12:01:49;;;;;;;4.05;2.03;;;;;;;;;;5083969;28;20034;-50
2022/01/06 12:04:19;;;;;;;4.03;2.03;;;;;;;;;;5075383;28;20035;-52
2022/01/06 12:06:46;;;;;;;4.97;1.90;;;;;;;;;;5084908;28;20020;-50
2022/01/06 12:09:16;;;;;;;3.63;1.75;;;;;;;;;;5085304;28;20699;-51
2022/01/06 12:11:43;;;;;;;4.85;1.65;;;;;;;;;;5084808;28;20135;-51
2022/01/06 12:14:09;;;;;;;4.20;1.42;;;;;;;;;;5086379;28;20040;-53
2022/01/06 12:16:36;;;;;;;3.28;1.33;;;;;;;;;;5089405;28;20266;-49
2022/01/06 12:19:15;;;;;;;3.55;1.30;;;;;;;;;;5088212;28;20036;-50
2022/01/06 12:21:41;;;;;;;4.18;1.65;;;;;;;;;;5094171;28;20023;-51
2022/01/06 12:24:08;;;;;;;1.77;1.13;;;;;;;;;;5084829;28;20115;-50
2022/01/06 12:26:35;;;;;;;2.92;1.30;;;;;;;;;;5069087;28;20021;-50
2022/01/06 12:29:01;;;;;;;2.47;1.10;;;;;;;;;;5083189;28;20036;-51
2022/01/06 12:31:30;;;;;;;2.28;1.25;;;;;;;;;;5085618;28;20058;-48
2022/01/06 12:33:59;;;;;;;2.58;1.23;;;;;;;;;;5093348;28;20032;-50
2022/01/06 12:36:28;;;;;;;2.10;1.05;;;;;;;;;;5096019;28;20110;-53
2022/01/06 12:38:54;;;;;;;2.03;1.08;;;;;;;;;;5071583;28;20438;-52
2022/01/06 12:41:31;;;;;;;2.40;1.55;;;;;;;;;;5084694;28;20229;-49
2022/01/06 12:43:57;;;;;;;2.42;1.20;;;;;;;;;;5069430;28;20706;-48
2022/01/06 12:46:29;;;;;;;3.60;1.60;;;;;;;;;;5087444;28;20099;-48
2022/01/06 12:48:56;;;;;;;3.30;2.00;;;;;;;;;;5087199;28;20038;-52
2022/01/06 12:51:27;;;;;;;3.42;1.80;;;;;;;;;;5094026;28;20031;-51
2022/01/06 12:53:59;;;;;;;2.67;1.25;;;;;;;;;;5099174;28;20105;-49
2022/01/06 12:56:26;;;;;;;4.03;1.88;;;;;;;;;;5097035;28;20032;-49
2022/01/06 12:58:54;;;;;;;3.90;1.50;;;;;;;;;;5085112;28;20071;-49
2022/01/06 13:01:21;;;;;;;3.50;1.48;;;;;;;;;;5094799;28;20028;-52
2022/01/06 13:03:51;;;;;;;3.05;1.52;;;;;;;;;;5086740;28;20082;-50
2022/01/06 13:06:17;;;;;;;4.25;1.35;;;;;;;;;;5086094;28;20020;-52
2022/01/06 13:08:51;;;;;;;1.77;1.25;;;;;;;;;;5086898;28;20032;-52
2022/01/06 13:11:18;;;;;;;2.55;1.20;;;;;;;;;;5087716;28;20106;-50
2022/01/06 13:13:49;;;;;;;3.30;1.17;;;;;;;;;;5085719;28;21463;-49
2022/01/06 13:16:28;;;;;;;1.40;1.02;;;;;;;;;;5106579;28;20433;-52
2022/01/06 13:18:59;;;;;;;3.15;1.45;;;;;;;;;;5106817;28;20402;-49
2022/01/06 13:21:28;;;;;;;3.20;1.20;;;;;;;;;;5107211;28;20049;-49
2022/01/06 13:23:56;;;;;;;1.77;1.08;;;;;;;;;;5090687;28;20077;-48
2022/01/06 13:26:23;;;;;;;2.17;1.23;;;;;;;;;;5085799;28;20016;-49
2022/01/06 13:28:56;;;;;;;2.83;1.25;;;;;;;;;;5085036;28;20043;-49
2022/01/06 13:31:23;;;;;;;2.28;1.30;;;;;;;;;;5082707;28;20472;-48
2022/01/06 13:33:54;;;;;;;2.22;1.00;;;;;;;;;;5091109;28;20077;-49
2022/01/06 13:36:27;;;;;;;1.88;1.10;;;;;;;;;;5085813;28;20565;-50
2022/01/06 13:38:53;;;;;;;3.58;1.48;;;;;;;;;;5076417;28;20509;-48
2022/01/06 13:41:27;;;;;;;3.28;1.40;;;;;;;;;;5082170;28;20429;-49
2022/01/06 13:43:57;;;;;;;3.92;1.80;;;;;;;;;;5087083;28;20056;-50
2022/01/06 13:46:27;;;;;;;2.50;1.20;;;;;;;;;;5088746;28;20021;-48
2022/01/06 13:51:37;;;;;;;;;;;;;;;;;;5087984;28;20232;-48
2022/01/06 13:54:10;;;;;;;3.50;1.27;;;;;;;;;;5087089;28;19942;-49
2022/01/06 13:56:37;;;;;;;2.10;1.10;;;;;;;;;;5086224;28;20035;-50
2022/01/06 13:59:09;;;;;;;2.85;1.20;;;;;;;;;;5093817;28;20418;-51
2022/01/06 14:01:37;;;;;;;2.20;0.90;;;;;;;;;;5087588;28;20360;-49
2022/01/06 14:04:05;;;;;;;2.67;1.20;;;;;;;;;;5087213;28;20451;-48
2022/01/06 14:06:31;;;;;;;2.70;1.10;;;;;;;;;;5086043;28;20020;-51
2022/01/06 14:08:57;;;;;;;3.88;1.42;;;;;;;;;;5107576;28;20560;-50
2022/01/06 14:11:27;;;;;;;2.00;1.23;;;;;;;;;;5097573;28;20028;-49
2022/01/06 14:13:53;;;;;;;3.63;1.60;;;;;;;;;;5087334;28;20032;-49
2022/01/06 14:16:20;;;;;;;3.65;1.55;;;;;;;;;;5085974;28;20040;-47
2022/01/06 14:18:46;;;;;;;3.42;1.38;;;;;;;;;;5104170;28;20047;-49
2022/01/06 14:21:13;;;;;;;3.53;1.30;;;;;;;;;;5107205;28;20020;-51
2022/01/06 14:23:40;;;;;;;2.40;1.00;;;;;;;;;;5103556;28;20032;-49
2022/01/06 14:26:07;;;;;;;3.95;1.60;;;;;;;;;;5097040;28;20020;-48
2022/01/06 14:28:34;;;;;;;3.65;1.58;;;;;;;;;;5086820;28;20077;-48
2022/01/06 14:31:04;;;;;;;6.22;2.20;;;;;;;;;;5068553;28;20050;-52
2022/01/06 14:33:30;;;;;;;7.20;2.75;;;;;;;;;;5088408;28;20489;-52
2022/01/06 14:35:57;;;;;;;6.80;2.20;;;;;;;;;;5095063;28;20020;-52
2022/01/06 14:38:24;;;;;;;7.15;2.47;;;;;;;;;;5075416;28;20582;-49
2022/01/06 14:40:52;;;;;;;3.92;2.03;;;;;;;;;;5084183;28;20035;-51
2022/01/06 14:43:18;;;;;;;5.03;1.60;;;;;;;;;;5086177;28;20031;-49
2022/01/06 14:45:44;;;;;;;4.63;2.10;;;;;;;;;;5086445;28;20044;-50
2022/01/06 14:48:10;;;;;;;4.13;1.65;;;;;;;;;;5085877;28;20034;-49
2022/01/06 14:50:36;;;;;;;3.90;1.73;;;;;;;;;;5086494;28;20024;-50
2022/01/06 14:53:02;;;;;;;6.03;1.77;;;;;;;;;;5081258;28;20419;-52
2022/01/06 14:55:28;;;;;;;5.97;1.80;;;;;;;;;;5097216;28;20494;-52
2022/01/06 14:57:54;;;;;;;2.72;1.67;;;;;;;;;;5085482;28;20032;-50